Zarechensk — ONGC — position and weather

sailwx.info

Track history (hours):
 
Tides and Currents Weather Stations Pressure Air Temp Water Temp Dewpoint Dewpoint Depression Visibility Wind Speed Wind Dir Waves Ship Positions

Zarechensk

Last reported at 2016-Feb-12 06:12 UTC. Time now 2016-Feb-12 16:08 UTC.
Position S 23°01' W 041°21'.

Length 180 m; draft 9.9 m.

MMSI: 205561000.

Date/timePositionNaut miles runAvg speedWind from/ knotsBaromVisibWave heightAir tempDewpointWater temp
2016-Feb-12 06:12S 23°01' W 041°21'  
2016-Feb-08 00:08S 35°10' W 056°19'2610.0
2016-Feb-07 21:29S 35°10' W 056°52'910.2
2016-Feb-07 20:33S 35°08' W 057°03'1111.0
2016-Feb-07 19:33S 35°00' W 057°12'1110.8
2016-Feb-07 18:33S 34°52' W 057°21'1110.6
2016-Feb-07 17:33S 34°46' W 057°32'1111.1
2016-Feb-07 16:34S 34°44' W 057°45'1010.3
2016-Feb-07 15:33S 34°41' W 057°57'9 9.2
2016-Feb-07 14:33S 34°38' W 058°08'113 8.5
2016-Feb-07 01:13S 33°29' W 059°55'710.0
2016-Feb-07 00:33S 33°26' W 060°03'62 1.7
2016-Feb-05 11:22S 32°36' W 060°46'0 0.0
2016-Feb-05 10:22S 32°36' W 060°46'  
Track history (hours):
 
Tides and Currents Weather Stations Pressure Air Temp Water Temp Dewpoint Dewpoint Depression Visibility Wind Speed Wind Dir Waves Ship Positions

Zarechensk

Last reported at 2016-Feb-12 06:12 UTC. Time now 2016-Feb-12 16:08 UTC.
Position S 23°01' W 041°21'.

Length 180 m; draft 9.9 m.

MMSI: 205561000.

Date/timePositionNaut miles runAvg speedWind from/ knotsBaromVisibWave heightAir tempDewpointWater temp
2016-Feb-12 06:12S 23°01' W 041°21'  
2016-Feb-08 00:08S 35°10' W 056°19'2610.0
2016-Feb-07 21:29S 35°10' W 056°52'910.2
2016-Feb-07 20:33S 35°08' W 057°03'1111.0
2016-Feb-07 19:33S 35°00' W 057°12'1110.8
2016-Feb-07 18:33S 34°52' W 057°21'1110.6
2016-Feb-07 17:33S 34°46' W 057°32'1111.1
2016-Feb-07 16:34S 34°44' W 057°45'1010.3
2016-Feb-07 15:33S 34°41' W 057°57'9 9.2
2016-Feb-07 14:33S 34°38' W 058°08'113 8.5
2016-Feb-07 01:13S 33°29' W 059°55'710.0
2016-Feb-07 00:33S 33°26' W 060°03'62 1.7
2016-Feb-05 11:22S 32°36' W 060°46'0 0.0
2016-Feb-05 10:22S 32°36' W 060°46'  

Dump ship's entire track history